sensor_id;sensor_type;location;lat;lon;timestamp;pressure;altitude;pressure_sealevel;temperature;humidity
13241;BME280;6687;47.790;7.322;2023-03-03T06:11:58;99289.69;;;1.06;83.65
13241;BME280;6687;47.790;7.322;2023-03-03T06:14:24;99291.69;;;1.13;83.55
13241;BME280;6687;47.790;7.322;2023-03-03T06:16:51;99294.66;;;1.42;82.95
13241;BME280;6687;47.790;7.322;2023-03-03T06:19:18;99288.06;;;1.47;82.00
13241;BME280;6687;47.790;7.322;2023-03-03T06:21:44;99300.16;;;1.51;81.77
13241;BME280;6687;47.790;7.322;2023-03-03T06:24:11;99299.34;;;1.52;81.92
13241;BME280;6687;47.790;7.322;2023-03-03T06:26:38;99295.31;;;1.57;81.50
13241;BME280;6687;47.790;7.322;2023-03-03T06:29:06;99298.53;;;1.72;81.02
13241;BME280;6687;47.790;7.322;2023-03-03T06:31:32;99306.06;;;1.69;80.88
13241;BME280;6687;47.790;7.322;2023-03-03T06:34:00;99313.16;;;1.76;80.72
13241;BME280;6687;47.790;7.322;2023-03-03T06:36:26;99312.56;;;1.82;80.70
13241;BME280;6687;47.790;7.322;2023-03-03T06:38:53;99312.81;;;1.88;80.32
13241;BME280;6687;47.790;7.322;2023-03-03T06:41:20;99315.94;;;1.81;80.49
13241;BME280;6687;47.790;7.322;2023-03-03T06:43:46;99315.28;;;1.87;80.64
13241;BME280;6687;47.790;7.322;2023-03-03T06:46:14;99317.47;;;1.77;80.76
13241;BME280;6687;47.790;7.322;2023-03-03T06:48:41;99325.75;;;1.72;81.09
13241;BME280;6687;47.790;7.322;2023-03-03T06:51:19;99323.84;;;1.87;81.14
13241;BME280;6687;47.790;7.322;2023-03-03T06:53:47;99336.09;;;1.75;81.30
13241;BME280;6687;47.790;7.322;2023-03-03T06:56:15;99328.06;;;1.87;81.32
13241;BME280;6687;47.790;7.322;2023-03-03T06:58:42;99336.13;;;1.96;81.24
13241;BME280;6687;47.790;7.322;2023-03-03T07:01:15;99338.25;;;1.85;81.78
13241;BME280;6687;47.790;7.322;2023-03-03T07:03:43;99337.69;;;1.92;81.65
13241;BME280;6687;47.790;7.322;2023-03-03T07:06:17;99344.38;;;2.10;80.96
13241;BME280;6687;47.790;7.322;2023-03-03T07:08:46;99354.00;;;2.15;80.86
13241;BME280;6687;47.790;7.322;2023-03-03T07:11:17;99342.31;;;2.01;81.09
13241;BME280;6687;47.790;7.322;2023-03-03T07:13:46;99354.97;;;1.98;80.96
13241;BME280;6687;47.790;7.322;2023-03-03T07:16:15;99362.28;;;1.90;81.68
13241;BME280;6687;47.790;7.322;2023-03-03T07:18:47;99361.28;;;1.87;82.77
13241;BME280;6687;47.790;7.322;2023-03-03T07:21:18;99366.78;;;1.96;82.32
13241;BME280;6687;47.790;7.322;2023-03-03T07:23:47;99370.69;;;2.07;82.48
13241;BME280;6687;47.790;7.322;2023-03-03T07:26:15;99358.13;;;1.73;83.66
13241;BME280;6687;47.790;7.322;2023-03-03T07:28:43;99360.50;;;1.68;84.51
13241;BME280;6687;47.790;7.322;2023-03-03T07:31:25;99363.47;;;1.77;84.52
13241;BME280;6687;47.790;7.322;2023-03-03T07:33:53;99368.41;;;1.94;84.28
13241;BME280;6687;47.790;7.322;2023-03-03T07:36:27;99367.38;;;1.69;84.59
13241;BME280;6687;47.790;7.322;2023-03-03T07:38:56;99375.06;;;1.71;84.67
13241;BME280;6687;47.790;7.322;2023-03-03T07:41:24;99371.81;;;1.73;85.05
13241;BME280;6687;47.790;7.322;2023-03-03T07:43:52;99373.25;;;1.88;84.26
13241;BME280;6687;47.790;7.322;2023-03-03T07:46:27;99371.25;;;1.81;84.42
13241;BME280;6687;47.790;7.322;2023-03-03T07:48:55;99372.31;;;1.86;84.78
13241;BME280;6687;47.790;7.322;2023-03-03T07:51:25;99377.44;;;1.86;84.82
13241;BME280;6687;47.790;7.322;2023-03-03T07:53:55;99371.91;;;1.96;84.84
13241;BME280;6687;47.790;7.322;2023-03-03T07:56:29;99379.91;;;2.04;84.84
13241;BME280;6687;47.790;7.322;2023-03-03T07:58:56;99380.59;;;1.99;85.35
13241;BME280;6687;47.790;7.322;2023-03-03T08:01:40;99382.72;;;1.90;85.29
13241;BME280;6687;47.790;7.322;2023-03-03T08:04:16;99378.97;;;2.02;85.14
13241;BME280;6687;47.790;7.322;2023-03-03T08:06:52;99371.47;;;2.06;85.12
13241;BME280;6687;47.790;7.322;2023-03-03T08:09:36;99383.75;;;1.94;85.88
13241;BME280;6687;47.790;7.322;2023-03-03T08:12:37;99385.22;;;1.89;85.52
13241;BME280;6687;47.790;7.322;2023-03-03T08:15:16;99383.31;;;2.04;85.70
13241;BME280;6687;47.790;7.322;2023-03-03T08:17:45;99382.91;;;2.14;84.66
13241;BME280;6687;47.790;7.322;2023-03-03T08:20:41;99385.03;;;2.25;84.15
13241;BME280;6687;47.790;7.322;2023-03-03T08:23:09;99383.69;;;2.33;83.56
13241;BME280;6687;47.790;7.322;2023-03-03T08:25:36;99384.81;;;2.39;83.16
13241;BME280;6687;47.790;7.322;2023-03-03T08:28:03;99372.34;;;2.47;82.78
13241;BME280;6687;47.790;7.322;2023-03-03T08:30:30;99376.63;;;2.48;82.72
13241;BME280;6687;47.790;7.322;2023-03-03T08:32:58;99379.88;;;2.44;83.29
13241;BME280;6687;47.790;7.322;2023-03-03T08:35:25;99378.88;;;2.19;84.14
13241;BME280;6687;47.790;7.322;2023-03-03T08:37:52;99390.41;;;2.31;84.51
13241;BME280;6687;47.790;7.322;2023-03-03T08:40:19;99387.22;;;2.36;84.68
13241;BME280;6687;47.790;7.322;2023-03-03T08:42:46;99386.22;;;2.54;83.91
13241;BME280;6687;47.790;7.322;2023-03-03T08:45:13;99389.03;;;2.60;83.18
13241;BME280;6687;47.790;7.322;2023-03-03T08:47:40;99387.09;;;2.54;83.29
13241;BME280;6687;47.790;7.322;2023-03-03T08:50:09;99393.34;;;2.40;84.49
13241;BME280;6687;47.790;7.322;2023-03-03T08:52:36;99393.16;;;2.56;84.16
13241;BME280;6687;47.790;7.322;2023-03-03T08:55:03;99399.19;;;2.58;83.78
13241;BME280;6687;47.790;7.322;2023-03-03T08:57:30;99395.16;;;2.64;83.44
13241;BME280;6687;47.790;7.322;2023-03-03T08:59:57;99392.78;;;2.68;83.15
13241;BME280;6687;47.790;7.322;2023-03-03T09:02:24;99386.53;;;2.62;83.25
13241;BME280;6687;47.790;7.322;2023-03-03T09:04:51;99394.50;;;2.47;84.44
13241;BME280;6687;47.790;7.322;2023-03-03T09:07:19;99391.28;;;2.52;85.02
13241;BME280;6687;47.790;7.322;2023-03-03T09:09:45;99392.19;;;2.53;85.70
13241;BME280;6687;47.790;7.322;2023-03-03T09:12:15;99399.16;;;2.57;86.07
13241;BME280;6687;47.790;7.322;2023-03-03T09:14:42;99389.34;;;2.68;86.81
13241;BME280;6687;47.790;7.322;2023-03-03T09:17:21;99395.16;;;2.85;85.91
13241;BME280;6687;47.790;7.322;2023-03-03T09:19:49;99389.66;;;2.96;86.23
13241;BME280;6687;47.790;7.322;2023-03-03T09:22:21;99388.59;;;3.14;86.38
13241;BME280;6687;47.790;7.322;2023-03-03T09:24:49;99382.06;;;3.22;85.71
13241;BME280;6687;47.790;7.322;2023-03-03T09:27:21;99384.41;;;3.38;86.61
13241;BME280;6687;47.790;7.322;2023-03-03T09:29:50;99393.56;;;3.56;86.35
13241;BME280;6687;47.790;7.322;2023-03-03T09:32:26;99390.66;;;3.69;86.20
13241;BME280;6687;47.790;7.322;2023-03-03T09:34:55;99393.53;;;3.78;85.75
13241;BME280;6687;47.790;7.322;2023-03-03T09:37:26;99391.19;;;3.85;83.52
13241;BME280;6687;47.790;7.322;2023-03-03T09:39:57;99393.81;;;4.10;82.70
13241;BME280;6687;47.790;7.322;2023-03-03T09:42:44;99395.22;;;4.26;82.43
13241;BME280;6687;47.790;7.322;2023-03-03T09:45:27;99399.97;;;4.41;81.76
13241;BME280;6687;47.790;7.322;2023-03-03T09:48:26;99403.78;;;4.52;80.71
13241;BME280;6687;47.790;7.322;2023-03-03T09:51:06;99397.97;;;4.85;79.68
13241;BME280;6687;47.790;7.322;2023-03-03T09:53:47;99390.25;;;4.84;77.17
13241;BME280;6687;47.790;7.322;2023-03-03T09:56:24;99387.56;;;5.08;77.04
13241;BME280;6687;47.790;7.322;2023-03-03T09:59:03;99386.06;;;5.45;76.10
13241;BME280;6687;47.790;7.322;2023-03-03T10:01:54;99386.69;;;5.66;75.92
13241;BME280;6687;47.790;7.322;2023-03-03T10:04:38;99391.03;;;5.67;74.18
13241;BME280;6687;47.790;7.322;2023-03-03T10:07:24;99393.81;;;6.05;74.33
13241;BME280;6687;47.790;7.322;2023-03-03T10:10:18;99395.38;;;6.32;72.96
13241;BME280;6687;47.790;7.322;2023-03-03T10:12:59;99398.69;;;6.61;72.18
13241;BME280;6687;47.790;7.322;2023-03-03T10:15:36;99395.44;;;6.70;70.55
13241;BME280;6687;47.790;7.322;2023-03-03T10:18:14;99401.03;;;6.88;69.71
13241;BME280;6687;47.790;7.322;2023-03-03T10:20:51;99405.13;;;6.79;67.34
13241;BME280;6687;47.790;7.322;2023-03-03T10:23:36;99396.09;;;7.35;67.85
13241;BME280;6687;47.790;7.322;2023-03-03T10:26:16;99398.09;;;7.49;66.95
13241;BME280;6687;47.790;7.322;2023-03-03T10:29:00;99408.34;;;7.46;65.17
13241;BME280;6687;47.790;7.322;2023-03-03T10:34:38;99403.53;;;7.61;66.16
13241;BME280;6687;47.790;7.322;2023-03-03T10:37:15;99402.75;;;8.09;66.08
13241;BME280;6687;47.790;7.322;2023-03-03T10:39:56;99401.06;;;8.11;63.93
13241;BME280;6687;47.790;7.322;2023-03-03T10:42:42;99411.84;;;8.36;64.17
13241;BME280;6687;47.790;7.322;2023-03-03T10:45:34;99404.28;;;8.44;64.45
13241;BME280;6687;47.790;7.322;2023-03-03T10:48:33;99404.94;;;8.35;63.76
13241;BME280;6687;47.790;7.322;2023-03-03T10:51:14;99401.31;;;8.72;65.70
13241;BME280;6687;47.790;7.322;2023-03-03T10:53:52;99403.13;;;8.78;64.68
13241;BME280;6687;47.790;7.322;2023-03-03T10:56:32;99401.47;;;8.83;62.71
13241;BME280;6687;47.790;7.322;2023-03-03T10:59:12;99395.31;;;8.75;60.54
13241;BME280;6687;47.790;7.322;2023-03-03T11:01:49;99398.50;;;9.13;63.51
13241;BME280;6687;47.790;7.322;2023-03-03T11:04:37;99399.00;;;8.89;60.60
13241;BME280;6687;47.790;7.322;2023-03-03T11:07:11;99392.84;;;9.41;62.60
13241;BME280;6687;47.790;7.322;2023-03-03T11:10:00;99393.53;;;9.29;59.52
13241;BME280;6687;47.790;7.322;2023-03-03T11:12:40;99390.69;;;9.74;59.54
13241;BME280;6687;47.790;7.322;2023-03-03T11:15:40;99391.28;;;9.52;58.89
13241;BME280;6687;47.790;7.322;2023-03-03T11:18:25;99397.72;;;9.86;58.21
13241;BME280;6687;47.790;7.322;2023-03-03T11:20:58;99393.25;;;9.71;57.82
13241;BME280;6687;47.790;7.322;2023-03-03T11:23:48;99390.09;;;9.97;59.58
13241;BME280;6687;47.790;7.322;2023-03-03T11:26:22;99391.31;;;9.55;56.23
13241;BME280;6687;47.790;7.322;2023-03-03T11:29:05;99388.69;;;10.27;58.83
13241;BME280;6687;47.790;7.322;2023-03-03T11:31:41;99385.16;;;10.19;56.13
13241;BME280;6687;47.790;7.322;2023-03-03T11:34:18;99386.56;;;9.92;56.25
13241;BME280;6687;47.790;7.322;2023-03-03T11:36:54;99385.16;;;10.19;54.51
13241;BME280;6687;47.790;7.322;2023-03-03T11:39:24;99381.25;;;10.59;55.94
13241;BME280;6687;47.790;7.322;2023-03-03T11:41:58;99376.81;;;10.47;58.56
13241;BME280;6687;47.790;7.322;2023-03-03T11:44:31;99371.59;;;10.41;53.66
13241;BME280;6687;47.790;7.322;2023-03-03T11:47:04;99375.00;;;10.37;55.01
13241;BME280;6687;47.790;7.322;2023-03-03T11:49:37;99375.91;;;10.41;53.29
13241;BME280;6687;47.790;7.322;2023-03-03T11:52:19;99380.13;;;10.31;54.17
13241;BME280;6687;47.790;7.322;2023-03-03T11:54:51;99373.00;;;10.14;52.88
13241;BME280;6687;47.790;7.322;2023-03-03T11:57:23;99368.22;;;10.51;51.37
13241;BME280;6687;47.790;7.322;2023-03-03T12:00:03;99366.41;;;10.44;51.68
13241;BME280;6687;47.790;7.322;2023-03-03T12:05:47;99363.22;;;10.76;53.26
13241;BME280;6687;47.790;7.322;2023-03-03T12:08:26;99357.88;;;10.56;56.37
13241;BME280;6687;47.790;7.322;2023-03-03T12:11:00;99348.63;;;10.87;52.39
13241;BME280;6687;47.790;7.322;2023-03-03T12:13:38;99350.50;;;11.10;56.84
13241;BME280;6687;47.790;7.322;2023-03-03T12:16:12;99351.28;;;10.97;53.34
13241;BME280;6687;47.790;7.322;2023-03-03T12:18:58;99352.06;;;10.83;53.49
13241;BME280;6687;47.790;7.322;2023-03-03T12:21:38;99346.09;;;11.00;52.42
13241;BME280;6687;47.790;7.322;2023-03-03T12:24:21;99340.81;;;10.81;51.88
13241;BME280;6687;47.790;7.322;2023-03-03T12:26:57;99332.91;;;10.63;50.66
13241;BME280;6687;47.790;7.322;2023-03-03T12:29:32;99335.09;;;11.41;51.42
13241;BME280;6687;47.790;7.322;2023-03-03T12:32:12;99334.31;;;11.60;53.21
13241;BME280;6687;47.790;7.322;2023-03-03T12:34:50;99332.53;;;11.48;52.89
13241;BME280;6687;47.790;7.322;2023-03-03T12:37:27;99335.19;;;11.56;53.87
13241;BME280;6687;47.790;7.322;2023-03-03T12:40:06;99328.16;;;11.37;51.59
13241;BME280;6687;47.790;7.322;2023-03-03T12:42:41;99324.88;;;11.87;53.47
13241;BME280;6687;47.790;7.322;2023-03-03T12:45:23;99325.59;;;11.46;55.02
13241;BME280;6687;47.790;7.322;2023-03-03T12:47:59;99324.00;;;11.80;53.21
13241;BME280;6687;47.790;7.322;2023-03-03T12:50:35;99317.00;;;11.50;49.29
13241;BME280;6687;47.790;7.322;2023-03-03T12:53:16;99324.66;;;11.31;50.88
13241;BME280;6687;47.790;7.322;2023-03-03T12:55:51;99312.13;;;10.58;50.81
13241;BME280;6687;47.790;7.322;2023-03-03T12:58:27;99314.38;;;11.51;52.65
13241;BME280;6687;47.790;7.322;2023-03-03T13:01:10;99309.16;;;11.44;51.53
13241;BME280;6687;47.790;7.322;2023-03-03T13:03:46;99313.31;;;11.08;50.07
13241;BME280;6687;47.790;7.322;2023-03-03T13:06:22;99308.94;;;10.94;49.99
13241;BME280;6687;47.790;7.322;2023-03-03T13:09:05;99308.97;;;11.02;49.62
13241;BME280;6687;47.790;7.322;2023-03-03T13:12:02;99306.41;;;11.07;51.86
13241;BME280;6687;47.790;7.322;2023-03-03T13:14:37;99302.16;;;11.21;51.04
13241;BME280;6687;47.790;7.322;2023-03-03T13:17:17;99300.63;;;11.79;52.30
13241;BME280;6687;47.790;7.322;2023-03-03T13:19:51;99301.44;;;11.59;49.90
13241;BME280;6687;47.790;7.322;2023-03-03T13:22:33;99304.06;;;11.68;51.99
13241;BME280;6687;47.790;7.322;2023-03-03T13:25:07;99300.59;;;11.68;50.31
13241;BME280;6687;47.790;7.322;2023-03-03T13:27:46;99299.00;;;12.18;49.83
13241;BME280;6687;47.790;7.322;2023-03-03T13:30:19;99301.50;;;11.76;52.41
13241;BME280;6687;47.790;7.322;2023-03-03T13:32:52;99299.81;;;11.92;51.30
13241;BME280;6687;47.790;7.322;2023-03-03T13:35:31;99303.06;;;11.35;49.58
13241;BME280;6687;47.790;7.322;2023-03-03T13:38:01;99301.19;;;11.01;49.01
13241;BME280;6687;47.790;7.322;2023-03-03T13:40:38;99290.94;;;11.28;49.62
13241;BME280;6687;47.790;7.322;2023-03-03T13:43:11;99294.34;;;11.15;48.97
13241;BME280;6687;47.790;7.322;2023-03-03T13:45:50;99287.53;;;11.42;49.95
13241;BME280;6687;47.790;7.322;2023-03-03T13:48:31;99295.28;;;11.35;50.30
13241;BME280;6687;47.790;7.322;2023-03-03T13:51:12;99294.44;;;11.38;51.66
13241;BME280;6687;47.790;7.322;2023-03-03T13:53:49;99289.22;;;11.24;51.66
13241;BME280;6687;47.790;7.322;2023-03-03T13:56:30;99291.97;;;11.87;52.03
13241;BME280;6687;47.790;7.322;2023-03-03T13:59:04;99296.84;;;11.00;51.04
13241;BME280;6687;47.790;7.322;2023-03-03T14:01:46;99292.66;;;11.26;51.13
13241;BME280;6687;47.790;7.322;2023-03-03T14:04:31;99296.16;;;11.38;50.09
13241;BME280;6687;47.790;7.322;2023-03-03T14:07:10;99294.50;;;11.52;49.58
13241;BME280;6687;47.790;7.322;2023-03-03T14:09:55;99288.34;;;11.22;49.38
13241;BME280;6687;47.790;7.322;2023-03-03T14:12:28;99287.56;;;11.52;51.98
13241;BME280;6687;47.790;7.322;2023-03-03T14:15:10;99290.97;;;11.38;50.01
13241;BME280;6687;47.790;7.322;2023-03-03T14:17:52;99291.81;;;11.30;50.51
13241;BME280;6687;47.790;7.322;2023-03-03T14:20:25;99291.88;;;11.47;49.34
13241;BME280;6687;47.790;7.322;2023-03-03T14:22:55;99282.41;;;11.57;49.99
13241;BME280;6687;47.790;7.322;2023-03-03T14:25:24;99283.97;;;11.15;49.85
13241;BME280;6687;47.790;7.322;2023-03-03T14:28:01;99285.44;;;10.67;49.14
13241;BME280;6687;47.790;7.322;2023-03-03T14:30:31;99287.22;;;10.77;48.91
13241;BME280;6687;47.790;7.322;2023-03-03T14:33:19;99280.59;;;11.38;48.99
13241;BME280;6687;47.790;7.322;2023-03-03T14:35:59;99281.44;;;11.33;51.43
13241;BME280;6687;47.790;7.322;2023-03-03T14:38:39;99278.88;;;11.40;50.13
13241;BME280;6687;47.790;7.322;2023-03-03T14:41:13;99277.88;;;11.10;50.82
13241;BME280;6687;47.790;7.322;2023-03-03T14:43:42;99280.41;;;10.96;48.82
13241;BME280;6687;47.790;7.322;2023-03-03T14:46:32;99273.47;;;10.93;48.05
13241;BME280;6687;47.790;7.322;2023-03-03T14:49:00;99270.78;;;10.70;48.64
13241;BME280;6687;47.790;7.322;2023-03-03T14:51:29;99268.47;;;11.33;50.67
13241;BME280;6687;47.790;7.322;2023-03-03T14:53:58;99273.44;;;10.84;48.58
13241;BME280;6687;47.790;7.322;2023-03-03T14:56:27;99265.84;;;11.21;49.90
13241;BME280;6687;47.790;7.322;2023-03-03T14:59:15;99271.84;;;11.11;50.17
13241;BME280;6687;47.790;7.322;2023-03-03T15:01:43;99259.72;;;11.07;49.34
13241;BME280;6687;47.790;7.322;2023-03-03T15:04:23;99268.38;;;11.12;50.16
13241;BME280;6687;47.790;7.322;2023-03-03T15:06:51;99264.72;;;10.76;50.86
13241;BME280;6687;47.790;7.322;2023-03-03T15:09:31;99268.44;;;11.18;51.10
13241;BME280;6687;47.790;7.322;2023-03-03T15:12:16;99261.41;;;10.97;49.43
13241;BME280;6687;47.790;7.322;2023-03-03T15:14:45;99265.84;;;11.27;50.68
13241;BME280;6687;47.790;7.322;2023-03-03T15:17:19;99259.69;;;11.01;50.34
13241;BME280;6687;47.790;7.322;2023-03-03T15:20:03;99261.34;;;10.83;50.19
13241;BME280;6687;47.790;7.322;2023-03-03T15:22:45;99256.03;;;10.66;48.71
13241;BME280;6687;47.790;7.322;2023-03-03T15:25:17;99262.22;;;10.85;50.64
13241;BME280;6687;47.790;7.322;2023-03-03T15:27:50;99258.38;;;10.32;48.92
13241;BME280;6687;47.790;7.322;2023-03-03T15:30:25;99253.72;;;11.12;53.08
13241;BME280;6687;47.790;7.322;2023-03-03T15:32:59;99252.72;;;10.84;52.38
13241;BME280;6687;47.790;7.322;2023-03-03T15:35:39;99260.25;;;10.47;48.97
13241;BME280;6687;47.790;7.322;2023-03-03T15:38:28;99254.88;;;10.27;49.23
13241;BME280;6687;47.790;7.322;2023-03-03T15:41:10;99262.00;;;10.51;50.16
13241;BME280;6687;47.790;7.322;2023-03-03T15:43:51;99265.59;;;10.78;49.54
13241;BME280;6687;47.790;7.322;2023-03-03T15:46:26;99265.41;;;10.43;50.39
13241;BME280;6687;47.790;7.322;2023-03-03T15:49:08;99261.91;;;10.39;49.58
13241;BME280;6687;47.790;7.322;2023-03-03T15:52:02;99265.41;;;10.46;49.48
13241;BME280;6687;47.790;7.322;2023-03-03T15:54:43;99263.78;;;10.60;50.17
13241;BME280;6687;47.790;7.322;2023-03-03T15:57:18;99265.31;;;10.32;49.33
13241;BME280;6687;47.790;7.322;2023-03-03T16:00:03;99266.38;;;10.62;49.60
13241;BME280;6687;47.790;7.322;2023-03-03T16:02:41;99264.47;;;10.33;49.42
13241;BME280;6687;47.790;7.322;2023-03-03T16:05:14;99261.53;;;10.01;50.27
13241;BME280;6687;47.790;7.322;2023-03-03T16:07:52;99268.25;;;9.80;50.39
13241;BME280;6687;47.790;7.322;2023-03-03T16:10:30;99266.75;;;10.02;50.66
13241;BME280;6687;47.790;7.322;2023-03-03T16:13:04;99265.06;;;10.06;50.92
13241;BME280;6687;47.790;7.322;2023-03-03T16:15:44;99268.31;;;9.86;50.65
13241;BME280;6687;47.790;7.322;2023-03-03T16:18:22;99278.25;;;10.32;51.65
13241;BME280;6687;47.790;7.322;2023-03-03T16:21:05;99271.28;;;10.28;52.89
13241;BME280;6687;47.790;7.322;2023-03-03T16:23:44;99272.34;;;9.55;51.71
13241;BME280;6687;47.790;7.322;2023-03-03T16:26:26;99277.06;;;9.98;51.40
13241;BME280;6687;47.790;7.322;2023-03-03T16:29:09;99278.91;;;10.12;51.74
13241;BME280;6687;47.790;7.322;2023-03-03T16:31:43;99279.56;;;9.87;52.36
13241;BME280;6687;47.790;7.322;2023-03-03T16:34:14;99283.16;;;10.04;53.19
13241;BME280;6687;47.790;7.322;2023-03-03T16:36:53;99294.94;;;9.71;52.77
13241;BME280;6687;47.790;7.322;2023-03-03T16:39:34;99290.59;;;9.69;52.14
13241;BME280;6687;47.790;7.322;2023-03-03T16:42:08;99297.00;;;10.08;54.73
13241;BME280;6687;47.790;7.322;2023-03-03T16:44:46;99303.91;;;10.07;55.34
13241;BME280;6687;47.790;7.322;2023-03-03T16:47:27;99301.13;;;9.87;53.85
13241;BME280;6687;47.790;7.322;2023-03-03T16:50:09;99307.66;;;9.51;53.60
13241;BME280;6687;47.790;7.322;2023-03-03T16:52:42;99310.13;;;9.44;53.51
13241;BME280;6687;47.790;7.322;2023-03-03T16:55:13;99311.91;;;9.48;53.48
13241;BME280;6687;47.790;7.322;2023-03-03T16:57:49;99318.38;;;9.87;54.65
13241;BME280;6687;47.790;7.322;2023-03-03T17:00:20;99320.81;;;9.73;54.35
13241;BME280;6687;47.790;7.322;2023-03-03T17:03:09;99329.44;;;9.73;55.43
13241;BME280;6687;47.790;7.322;2023-03-03T17:05:43;99326.78;;;9.66;56.26
13241;BME280;6687;47.790;7.322;2023-03-03T17:08:33;99335.19;;;9.51;54.31
13241;BME280;6687;47.790;7.322;2023-03-03T17:11:04;99336.06;;;9.50;55.05
13241;BME280;6687;47.790;7.322;2023-03-03T17:13:48;99340.88;;;9.19;53.89
13241;BME280;6687;47.790;7.322;2023-03-03T17:16:26;99347.69;;;9.15;54.71
13241;BME280;6687;47.790;7.322;2023-03-03T17:19:05;99346.09;;;9.24;54.16
13241;BME280;6687;47.790;7.322;2023-03-03T17:21:44;99352.16;;;9.29;54.16
13241;BME280;6687;47.790;7.322;2023-03-03T17:24:21;99350.66;;;8.82;54.40
13241;BME280;6687;47.790;7.322;2023-03-03T17:27:05;99347.63;;;9.11;54.31
13241;BME280;6687;47.790;7.322;2023-03-03T17:29:43;99350.41;;;9.26;56.39
13241;BME280;6687;47.790;7.322;2023-03-03T17:32:23;99351.53;;;9.45;56.53
13241;BME280;6687;47.790;7.322;2023-03-03T17:35:12;99358.47;;;9.48;55.45
13241;BME280;6687;47.790;7.322;2023-03-03T17:37:47;99361.44;;;9.13;56.13
13241;BME280;6687;47.790;7.322;2023-03-03T17:40:23;99359.88;;;9.24;54.78
13241;BME280;6687;47.790;7.322;2023-03-03T17:42:55;99362.47;;;9.26;55.78
13241;BME280;6687;47.790;7.322;2023-03-03T17:45:26;99366.00;;;9.29;54.95
13241;BME280;6687;47.790;7.322;2023-03-03T17:48:16;99366.97;;;9.41;54.45
13241;BME280;6687;47.790;7.322;2023-03-03T17:51:04;99373.91;;;9.42;58.16
13241;BME280;6687;47.790;7.322;2023-03-03T17:53:52;99382.25;;;9.22;55.03
13241;BME280;6687;47.790;7.322;2023-03-03T17:56:26;99374.63;;;9.31;55.18
13241;BME280;6687;47.790;7.322;2023-03-03T17:59:21;99380.97;;;8.94;55.23
13241;BME280;6687;47.790;7.322;2023-03-03T18:02:23;99378.53;;;9.02;55.42
13241;BME280;6687;47.790;7.322;2023-03-03T18:05:12;99387.41;;;9.19;55.13
13241;BME280;6687;47.790;7.322;2023-03-03T18:07:52;99382.78;;;9.01;55.21
13241;BME280;6687;47.790;7.322;2023-03-03T18:14:06;99392.81;;;8.81;55.71
13241;BME280;6687;47.790;7.322;2023-03-03T18:16:52;99395.13;;;8.63;55.81
13241;BME280;6687;47.790;7.322;2023-03-03T18:19:37;99394.53;;;8.78;55.87
13241;BME280;6687;47.790;7.322;2023-03-03T18:22:13;99402.59;;;8.46;56.32
13241;BME280;6687;47.790;7.322;2023-03-03T18:24:55;99405.16;;;8.44;56.32
13241;BME280;6687;47.790;7.322;2023-03-03T18:27:33;99408.31;;;8.31;56.45
13241;BME280;6687;47.790;7.322;2023-03-03T18:30:19;99397.28;;;8.40;56.54
13241;BME280;6687;47.790;7.322;2023-03-03T18:33:01;99409.09;;;8.27;56.93
13241;BME280;6687;47.790;7.322;2023-03-03T18:35:33;99411.50;;;8.17;57.11
13241;BME280;6687;47.790;7.322;2023-03-03T18:38:23;99408.16;;;8.22;57.26
13241;BME280;6687;47.790;7.322;2023-03-03T18:40:55;99410.59;;;8.14;57.18
13241;BME280;6687;47.790;7.322;2023-03-03T18:43:50;99408.31;;;8.31;57.17
13241;BME280;6687;47.790;7.322;2023-03-03T18:46:47;99416.16;;;8.37;56.99
13241;BME280;6687;47.790;7.322;2023-03-03T18:49:14;99417.56;;;8.20;57.13
13241;BME280;6687;47.790;7.322;2023-03-03T18:51:49;99419.25;;;8.17;57.39
13241;BME280;6687;47.790;7.322;2023-03-03T18:54:24;99421.97;;;8.24;57.85
13241;BME280;6687;47.790;7.322;2023-03-03T18:57:19;99424.34;;;8.14;57.77
13241;BME280;6687;47.790;7.322;2023-03-03T19:00:13;99432.88;;;8.10;57.94
13241;BME280;6687;47.790;7.322;2023-03-03T19:02:50;99428.06;;;7.85;58.44
13241;BME280;6687;47.790;7.322;2023-03-03T19:05:21;99435.13;;;7.92;58.61
13241;BME280;6687;47.790;7.322;2023-03-03T19:07:51;99435.81;;;7.85;58.75
13241;BME280;6687;47.790;7.322;2023-03-03T19:10:53;99441.63;;;7.74;58.99
13241;BME280;6687;47.790;7.322;2023-03-03T19:13:49;99441.56;;;7.71;59.34
13241;BME280;6687;47.790;7.322;2023-03-03T19:16:34;99434.19;;;7.88;58.95
13241;BME280;6687;47.790;7.322;2023-03-03T19:19:06;99439.38;;;7.90;59.04
13241;BME280;6687;47.790;7.322;2023-03-03T19:21:35;99440.06;;;7.83;59.46
13241;BME280;6687;47.790;7.322;2023-03-03T19:24:03;99439.63;;;8.02;59.23
13241;BME280;6687;47.790;7.322;2023-03-03T19:27:02;99444.81;;;7.63;59.73
13241;BME280;6687;47.790;7.322;2023-03-03T19:29:48;99437.69;;;7.51;60.20
13241;BME280;6687;47.790;7.322;2023-03-03T19:32:27;99440.44;;;7.59;59.72
13241;BME280;6687;47.790;7.322;2023-03-03T19:35:03;99443.66;;;7.48;60.26
13241;BME280;6687;47.790;7.322;2023-03-03T19:37:40;99442.97;;;7.57;60.12
13241;BME280;6687;47.790;7.322;2023-03-03T19:40:19;99447.28;;;7.56;60.38
13241;BME280;6687;47.790;7.322;2023-03-03T19:42:56;99447.72;;;7.39;60.95
13241;BME280;6687;47.790;7.322;2023-03-03T19:45:39;99446.25;;;7.50;59.97
13241;BME280;6687;47.790;7.322;2023-03-03T19:48:18;99455.03;;;7.58;60.27
13241;BME280;6687;47.790;7.322;2023-03-03T19:50:51;99450.56;;;7.51;60.56
13241;BME280;6687;47.790;7.322;2023-03-03T19:53:33;99455.66;;;7.48;61.86
13241;BME280;6687;47.790;7.322;2023-03-03T19:56:13;99465.38;;;7.22;61.19
13241;BME280;6687;47.790;7.322;2023-03-03T19:58:51;99456.88;;;6.89;61.81
13241;BME280;6687;47.790;7.322;2023-03-03T20:01:27;99462.47;;;7.08;61.28
13241;BME280;6687;47.790;7.322;2023-03-03T20:04:25;99462.69;;;7.17;60.97
13241;BME280;6687;47.790;7.322;2023-03-03T20:06:55;99465.94;;;7.10;61.13
13241;BME280;6687;47.790;7.322;2023-03-03T20:09:34;99473.16;;;7.23;60.93
13241;BME280;6687;47.790;7.322;2023-03-03T20:12:16;99469.84;;;6.92;61.11
13241;BME280;6687;47.790;7.322;2023-03-03T20:14:49;99477.09;;;7.09;60.99
13241;BME280;6687;47.790;7.322;2023-03-03T20:20:49;99483.22;;;7.14;60.87
13241;BME280;6687;47.790;7.322;2023-03-03T20:23:21;99478.97;;;7.16;61.17
13241;BME280;6687;47.790;7.322;2023-03-03T20:25:52;99484.00;;;7.10;61.13
13241;BME280;6687;47.790;7.322;2023-03-03T20:28:51;99479.59;;;7.06;61.36
13241;BME280;6687;47.790;7.322;2023-03-03T20:31:27;99478.72;;;7.05;61.24
13241;BME280;6687;47.790;7.322;2023-03-03T20:34:07;99480.97;;;6.91;61.45